sensor_id;sensor_type;location;lat;lon;timestamp;pressure;altitude;pressure_sealevel;temperature;humidity
11329;BME280;5719;42.714;23.732;2023-11-19T00:00:48;94232.19;;;3.06;93.94
11329;BME280;5719;42.714;23.732;2023-11-19T00:03:16;94263.75;;;3.22;97.52
11329;BME280;5719;42.714;23.732;2023-11-19T00:05:43;94267.06;;;3.24;99.78
11329;BME280;5719;42.714;23.732;2023-11-19T00:08:10;94280.34;;;3.14;100.00
11329;BME280;5719;42.714;23.732;2023-11-19T00:10:36;94281.53;;;3.07;100.00
11329;BME280;5719;42.714;23.732;2023-11-19T00:13:05;94276.91;;;2.96;100.00
11329;BME280;5719;42.714;23.732;2023-11-19T00:15:32;94279.06;;;2.86;100.00
11329;BME280;5719;42.714;23.732;2023-11-19T00:17:59;94278.59;;;2.78;100.00
11329;BME280;5719;42.714;23.732;2023-11-19T00:20:28;94275.84;;;2.83;100.00
11329;BME280;5719;42.714;23.732;2023-11-19T00:22:55;94277.75;;;2.78;100.00
11329;BME280;5719;42.714;23.732;2023-11-19T00:25:21;94276.91;;;2.77;100.00
11329;BME280;5719;42.714;23.732;2023-11-19T00:27:48;94271.41;;;2.68;100.00
11329;BME280;5719;42.714;23.732;2023-11-19T00:30:17;94248.28;;;2.52;100.00
11329;BME280;5719;42.714;23.732;2023-11-19T00:32:44;94271.75;;;2.79;100.00
11329;BME280;5719;42.714;23.732;2023-11-19T00:35:11;94262.03;;;2.68;100.00
11329;BME280;5719;42.714;23.732;2023-11-19T00:37:40;94263.81;;;2.66;100.00
11329;BME280;5719;42.714;23.732;2023-11-19T00:40:08;94269.03;;;2.44;100.00
11329;BME280;5719;42.714;23.732;2023-11-19T00:42:36;94270.06;;;2.40;100.00
11329;BME280;5719;42.714;23.732;2023-11-19T00:45:03;94244.97;;;2.31;100.00
11329;BME280;5719;42.714;23.732;2023-11-19T00:47:35;94268.84;;;2.49;100.00
11329;BME280;5719;42.714;23.732;2023-11-19T00:50:02;94260.59;;;2.44;100.00
11329;BME280;5719;42.714;23.732;2023-11-19T00:52:29;94264.72;;;2.46;100.00
11329;BME280;5719;42.714;23.732;2023-11-19T00:54:55;94269.63;;;2.51;100.00
11329;BME280;5719;42.714;23.732;2023-11-19T00:57:22;94258.78;;;2.46;100.00
11329;BME280;5719;42.714;23.732;2023-11-19T00:59:52;94271.00;;;2.58;100.00
11329;BME280;5719;42.714;23.732;2023-11-19T01:02:18;94272.44;;;2.64;100.00
11329;BME280;5719;42.714;23.732;2023-11-19T01:04:47;94271.13;;;2.55;100.00
11329;BME280;5719;42.714;23.732;2023-11-19T01:17:36;94281.94;;;2.41;100.00
11329;BME280;5719;42.714;23.732;2023-11-19T01:20:06;94275.53;;;2.33;100.00
11329;BME280;5719;42.714;23.732;2023-11-19T01:22:33;94271.22;;;2.33;100.00
11329;BME280;5719;42.714;23.732;2023-11-19T01:25:00;94275.63;;;2.30;100.00
11329;BME280;5719;42.714;23.732;2023-11-19T01:27:26;94279.72;;;2.34;100.00
11329;BME280;5719;42.714;23.732;2023-11-19T01:29:53;94274.94;;;2.26;100.00
11329;BME280;5719;42.714;23.732;2023-11-19T01:32:20;94260.56;;;2.25;100.00
11329;BME280;5719;42.714;23.732;2023-11-19T01:34:49;94275.25;;;2.39;100.00
11329;BME280;5719;42.714;23.732;2023-11-19T01:37:17;94250.81;;;2.15;100.00
11329;BME280;5719;42.714;23.732;2023-11-19T01:39:44;94260.75;;;2.21;100.00
11329;BME280;5719;42.714;23.732;2023-11-19T01:42:11;94283.75;;;2.39;100.00
11329;BME280;5719;42.714;23.732;2023-11-19T01:44:38;94296.22;;;2.45;100.00
11329;BME280;5719;42.714;23.732;2023-11-19T01:47:06;94266.53;;;2.24;100.00
11329;BME280;5719;42.714;23.732;2023-11-19T01:49:33;94287.13;;;2.40;100.00
11329;BME280;5719;42.714;23.732;2023-11-19T01:52:00;94295.66;;;2.39;100.00
11329;BME280;5719;42.714;23.732;2023-11-19T01:54:28;94278.69;;;2.38;100.00
11329;BME280;5719;42.714;23.732;2023-11-19T01:56:56;94290.41;;;2.42;100.00
11329;BME280;5719;42.714;23.732;2023-11-19T01:59:24;94283.94;;;2.35;100.00
11329;BME280;5719;42.714;23.732;2023-11-19T02:01:53;94286.63;;;2.32;100.00
11329;BME280;5719;42.714;23.732;2023-11-19T02:04:21;94273.78;;;2.33;100.00
11329;BME280;5719;42.714;23.732;2023-11-19T02:06:49;94271.38;;;2.30;100.00
11329;BME280;5719;42.714;23.732;2023-11-19T02:09:19;94283.78;;;2.38;100.00
11329;BME280;5719;42.714;23.732;2023-11-19T02:11:47;94291.53;;;2.36;100.00
11329;BME280;5719;42.714;23.732;2023-11-19T02:14:17;94294.56;;;2.44;100.00
11329;BME280;5719;42.714;23.732;2023-11-19T02:16:45;94262.53;;;2.19;100.00
11329;BME280;5719;42.714;23.732;2023-11-19T02:19:12;94268.69;;;2.33;100.00
11329;BME280;5719;42.714;23.732;2023-11-19T02:21:39;94273.88;;;2.32;100.00
11329;BME280;5719;42.714;23.732;2023-11-19T02:24:09;94270.53;;;2.30;100.00
11329;BME280;5719;42.714;23.732;2023-11-19T02:26:40;94274.94;;;2.26;100.00
11329;BME280;5719;42.714;23.732;2023-11-19T02:36:34;94294.97;;;2.35;100.00
11329;BME280;5719;42.714;23.732;2023-11-19T02:39:00;94289.31;;;2.29;100.00
11329;BME280;5719;42.714;23.732;2023-11-19T02:41:28;94281.91;;;2.23;100.00
11329;BME280;5719;42.714;23.732;2023-11-19T02:43:55;94295.28;;;2.28;100.00
11329;BME280;5719;42.714;23.732;2023-11-19T02:46:22;94289.50;;;2.24;100.00
11329;BME280;5719;42.714;23.732;2023-11-19T02:48:49;94288.53;;;2.27;100.00
11329;BME280;5719;42.714;23.732;2023-11-19T02:51:15;94293.03;;;2.22;100.00
11329;BME280;5719;42.714;23.732;2023-11-19T03:00:28;94287.41;;;2.14;100.00
11329;BME280;5719;42.714;23.732;2023-11-19T03:02:59;94283.19;;;2.13;100.00
11329;BME280;5719;42.714;23.732;2023-11-19T03:05:35;94287.84;;;2.23;100.00
11329;BME280;5719;42.714;23.732;2023-11-19T03:08:02;94291.34;;;2.21;100.00
11329;BME280;5719;42.714;23.732;2023-11-19T03:10:29;94277.03;;;2.18;100.00
11329;BME280;5719;42.714;23.732;2023-11-19T03:12:55;94284.94;;;2.31;100.00
11329;BME280;5719;42.714;23.732;2023-11-19T03:15:22;94288.53;;;2.27;100.00
11329;BME280;5719;42.714;23.732;2023-11-19T03:17:50;94302.06;;;2.29;100.00
11329;BME280;5719;42.714;23.732;2023-11-19T03:20:17;94263.56;;;2.15;100.00
11329;BME280;5719;42.714;23.732;2023-11-19T03:22:44;94295.34;;;2.26;100.00
11329;BME280;5719;42.714;23.732;2023-11-19T03:25:11;94297.78;;;2.29;100.00
11329;BME280;5719;42.714;23.732;2023-11-19T03:27:39;94297.47;;;2.17;100.00
11329;BME280;5719;42.714;23.732;2023-11-19T03:30:08;94308.41;;;2.19;100.00
11329;BME280;5719;42.714;23.732;2023-11-19T03:32:35;94301.88;;;2.13;100.00
11329;BME280;5719;42.714;23.732;2023-11-19T03:35:04;94306.38;;;2.27;100.00
11329;BME280;5719;42.714;23.732;2023-11-19T03:37:33;94309.72;;;2.29;100.00
11329;BME280;5719;42.714;23.732;2023-11-19T03:40:00;94316.44;;;2.30;100.00
11329;BME280;5719;42.714;23.732;2023-11-19T03:42:26;94309.50;;;2.33;100.00
11329;BME280;5719;42.714;23.732;2023-11-19T03:44:54;94321.22;;;2.37;100.00
11329;BME280;5719;42.714;23.732;2023-11-19T03:47:20;94317.41;;;2.27;100.00
11329;BME280;5719;42.714;23.732;2023-11-19T03:49:48;94306.84;;;2.16;100.00
11329;BME280;5719;42.714;23.732;2023-11-19T03:52:17;94290.47;;;2.02;100.00
11329;BME280;5719;42.714;23.732;2023-11-19T03:54:44;94309.19;;;2.01;100.00
11329;BME280;5719;42.714;23.732;2023-11-19T03:57:12;94314.28;;;2.01;100.00
11329;BME280;5719;42.714;23.732;2023-11-19T03:59:39;94333.63;;;2.06;100.00
11329;BME280;5719;42.714;23.732;2023-11-19T04:02:06;94332.91;;;2.03;100.00
11329;BME280;5719;42.714;23.732;2023-11-19T04:04:32;94338.72;;;2.06;100.00
11329;BME280;5719;42.714;23.732;2023-11-19T04:07:00;94334.06;;;2.16;100.00
11329;BME280;5719;42.714;23.732;2023-11-19T04:09:29;94333.66;;;2.05;100.00
11329;BME280;5719;42.714;23.732;2023-11-19T04:11:58;94332.84;;;2.04;100.00
11329;BME280;5719;42.714;23.732;2023-11-19T04:14:26;94291.38;;;1.80;100.00
11329;BME280;5719;42.714;23.732;2023-11-19T04:16:53;94334.78;;;1.99;100.00
11329;BME280;5719;42.714;23.732;2023-11-19T04:19:20;94330.81;;;1.92;100.00
11329;BME280;5719;42.714;23.732;2023-11-19T04:21:47;94342.34;;;2.01;100.00
11329;BME280;5719;42.714;23.732;2023-11-19T04:24:14;94344.97;;;1.99;100.00
11329;BME280;5719;42.714;23.732;2023-11-19T04:26:42;94318.75;;;1.75;100.00
11329;BME280;5719;42.714;23.732;2023-11-19T04:29:11;94323.75;;;1.78;100.00
11329;BME280;5719;42.714;23.732;2023-11-19T04:31:38;94342.69;;;1.93;100.00
11329;BME280;5719;42.714;23.732;2023-11-19T04:34:05;94317.47;;;1.65;100.00
11329;BME280;5719;42.714;23.732;2023-11-19T04:36:33;94351.44;;;1.86;100.00
11329;BME280;5719;42.714;23.732;2023-11-19T04:39:00;94358.91;;;1.90;100.00
11329;BME280;5719;42.714;23.732;2023-11-19T04:41:27;94353.97;;;1.86;100.00
11329;BME280;5719;42.714;23.732;2023-11-19T04:43:55;94353.75;;;1.92;100.00
11329;BME280;5719;42.714;23.732;2023-11-19T05:00:02;94369.72;;;1.75;100.00
11329;BME280;5719;42.714;23.732;2023-11-19T05:02:30;94356.22;;;1.73;100.00
11329;BME280;5719;42.714;23.732;2023-11-19T05:04:57;94365.13;;;1.83;100.00
11329;BME280;5719;42.714;23.732;2023-11-19T05:07:24;94364.56;;;1.77;100.00
11329;BME280;5719;42.714;23.732;2023-11-19T05:09:51;94370.63;;;1.74;100.00
11329;BME280;5719;42.714;23.732;2023-11-19T05:12:18;94375.06;;;1.69;100.00
11329;BME280;5719;42.714;23.732;2023-11-19T05:14:44;94376.78;;;1.69;100.00
11329;BME280;5719;42.714;23.732;2023-11-19T05:17:17;94385.13;;;1.72;100.00
11329;BME280;5719;42.714;23.732;2023-11-19T05:19:44;94391.06;;;1.73;100.00
11329;BME280;5719;42.714;23.732;2023-11-19T05:22:11;94385.00;;;1.75;100.00
11329;BME280;5719;42.714;23.732;2023-11-19T05:24:38;94382.88;;;1.65;100.00
11329;BME280;5719;42.714;23.732;2023-11-19T05:27:06;94371.97;;;1.61;100.00
11329;BME280;5719;42.714;23.732;2023-11-19T05:29:33;94386.13;;;1.68;100.00
11329;BME280;5719;42.714;23.732;2023-11-19T05:32:00;94392.00;;;1.70;100.00
11329;BME280;5719;42.714;23.732;2023-11-19T05:34:28;94393.78;;;1.68;100.00
11329;BME280;5719;42.714;23.732;2023-11-19T05:36:55;94393.72;;;1.70;100.00
11329;BME280;5719;42.714;23.732;2023-11-19T05:39:22;94400.41;;;1.72;100.00
11329;BME280;5719;42.714;23.732;2023-11-19T05:41:49;94401.19;;;1.74;100.00
11329;BME280;5719;42.714;23.732;2023-11-19T05:44:17;94376.44;;;1.56;100.00
11329;BME280;5719;42.714;23.732;2023-11-19T05:46:44;94364.59;;;1.55;100.00
11329;BME280;5719;42.714;23.732;2023-11-19T05:49:11;94389.69;;;1.64;100.00
11329;BME280;5719;42.714;23.732;2023-11-19T05:51:40;94413.66;;;1.82;100.00
11329;BME280;5719;42.714;23.732;2023-11-19T05:54:08;94421.47;;;1.77;100.00
11329;BME280;5719;42.714;23.732;2023-11-19T05:56:35;94421.34;;;1.80;100.00
11329;BME280;5719;42.714;23.732;2023-11-19T05:59:02;94417.78;;;1.84;100.00
11329;BME280;5719;42.714;23.732;2023-11-19T06:01:32;94399.06;;;1.64;100.00
11329;BME280;5719;42.714;23.732;2023-11-19T06:03:59;94424.75;;;1.79;100.00
11329;BME280;5719;42.714;23.732;2023-11-19T06:06:26;94420.66;;;1.75;100.00
11329;BME280;5719;42.714;23.732;2023-11-19T06:08:54;94426.78;;;1.71;100.00
11329;BME280;5719;42.714;23.732;2023-11-19T06:11:21;94437.75;;;1.73;100.00
11329;BME280;5719;42.714;23.732;2023-11-19T06:13:48;94451.25;;;1.75;100.00
11329;BME280;5719;42.714;23.732;2023-11-19T06:16:16;94452.16;;;1.74;100.00
11329;BME280;5719;42.714;23.732;2023-11-19T06:18:43;94440.47;;;1.69;100.00
11329;BME280;5719;42.714;23.732;2023-11-19T06:21:10;94431.81;;;1.73;100.00
11329;BME280;5719;42.714;23.732;2023-11-19T06:23:37;94431.66;;;1.77;100.00
11329;BME280;5719;42.714;23.732;2023-11-19T06:26:05;94430.94;;;1.74;100.00
11329;BME280;5719;42.714;23.732;2023-11-19T06:28:32;94409.91;;;1.69;100.00
11329;BME280;5719;42.714;23.732;2023-11-19T06:30:59;94429.84;;;1.79;100.00
11329;BME280;5719;42.714;23.732;2023-11-19T06:33:26;94425.56;;;1.81;100.00
11329;BME280;5719;42.714;23.732;2023-11-19T06:35:53;94429.09;;;1.77;100.00
11329;BME280;5719;42.714;23.732;2023-11-19T06:38:20;94435.88;;;1.78;100.00
11329;BME280;5719;42.714;23.732;2023-11-19T06:40:47;94430.16;;;1.72;100.00
11329;BME280;5719;42.714;23.732;2023-11-19T06:43:15;94423.19;;;1.77;100.00
11329;BME280;5719;42.714;23.732;2023-11-19T06:45:42;94422.28;;;1.78;100.00
11329;BME280;5719;42.714;23.732;2023-11-19T06:48:08;94437.63;;;1.76;100.00
11329;BME280;5719;42.714;23.732;2023-11-19T06:50:36;94425.78;;;1.75;100.00
11329;BME280;5719;42.714;23.732;2023-11-19T06:53:03;94447.22;;;1.91;100.00
11329;BME280;5719;42.714;23.732;2023-11-19T06:55:31;94453.88;;;1.74;100.00
11329;BME280;5719;42.714;23.732;2023-11-19T06:57:59;94456.34;;;1.75;100.00
11329;BME280;5719;42.714;23.732;2023-11-19T07:00:29;94459.69;;;1.77;100.00
11329;BME280;5719;42.714;23.732;2023-11-19T07:02:58;94452.16;;;1.74;100.00
11329;BME280;5719;42.714;23.732;2023-11-19T07:05:25;94459.69;;;1.77;100.00
11329;BME280;5719;42.714;23.732;2023-11-19T07:07:51;94471.06;;;1.90;100.00
11329;BME280;5719;42.714;23.732;2023-11-19T07:10:19;94494.56;;;1.75;100.00
11329;BME280;5719;42.714;23.732;2023-11-19T07:12:46;94491.09;;;1.78;100.00
11329;BME280;5719;42.714;23.732;2023-11-19T07:15:15;94483.22;;;1.84;100.00
11329;BME280;5719;42.714;23.732;2023-11-19T07:24:27;94490.25;;;1.77;100.00
11329;BME280;5719;42.714;23.732;2023-11-19T07:26:55;94490.09;;;1.82;100.00
11329;BME280;5719;42.714;23.732;2023-11-19T07:29:22;94482.06;;;1.69;100.00
11329;BME280;5719;42.714;23.732;2023-11-19T07:31:49;94502.06;;;1.80;100.00
11329;BME280;5719;42.714;23.732;2023-11-19T07:41:19;94506.28;;;2.03;100.00
11329;BME280;5719;42.714;23.732;2023-11-19T07:43:46;94502.66;;;2.08;100.00
11329;BME280;5719;42.714;23.732;2023-11-19T07:46:14;94483.38;;;1.79;100.00
11329;BME280;5719;42.714;23.732;2023-11-19T07:48:41;94509.72;;;2.02;100.00
11329;BME280;5719;42.714;23.732;2023-11-19T07:54:48;94512.53;;;2.16;100.00
11329;BME280;5719;42.714;23.732;2023-11-19T07:57:16;94508.03;;;2.22;100.00
11329;BME280;5719;42.714;23.732;2023-11-19T07:59:43;94508.22;;;2.39;100.00
11329;BME280;5719;42.714;23.732;2023-11-19T08:02:10;94498.56;;;2.26;100.00
11329;BME280;5719;42.714;23.732;2023-11-19T08:04:37;94503.47;;;2.09;100.00
11329;BME280;5719;42.714;23.732;2023-11-19T08:07:10;94513.25;;;2.19;100.00
11329;BME280;5719;42.714;23.732;2023-11-19T08:09:41;94496.13;;;2.01;100.00
11329;BME280;5719;42.714;23.732;2023-11-19T08:12:08;94518.97;;;2.26;100.00
11329;BME280;5719;42.714;23.732;2023-11-19T08:14:36;94507.09;;;2.25;100.00
11329;BME280;5719;42.714;23.732;2023-11-19T08:17:03;94516.56;;;2.43;100.00
11329;BME280;5719;42.714;23.732;2023-11-19T08:19:30;94524.28;;;2.41;100.00
11329;BME280;5719;42.714;23.732;2023-11-19T08:21:57;94525.09;;;2.42;100.00
11329;BME280;5719;42.714;23.732;2023-11-19T08:24:24;94527.31;;;2.51;100.00
11329;BME280;5719;42.714;23.732;2023-11-19T08:27:10;94527.06;;;2.57;100.00
11329;BME280;5719;42.714;23.732;2023-11-19T08:29:38;94530.75;;;2.70;100.00
11329;BME280;5719;42.714;23.732;2023-11-19T08:32:06;94529.44;;;2.82;100.00
11329;BME280;5719;42.714;23.732;2023-11-19T08:34:33;94515.66;;;2.66;99.87
11329;BME280;5719;42.714;23.732;2023-11-19T08:37:00;94524.75;;;2.91;100.00
11329;BME280;5719;42.714;23.732;2023-11-19T08:39:27;94503.97;;;3.01;99.16
11329;BME280;5719;42.714;23.732;2023-11-19T08:41:54;94494.38;;;2.85;96.82
11329;BME280;5719;42.714;23.732;2023-11-19T08:44:22;94517.19;;;3.29;97.08
11329;BME280;5719;42.714;23.732;2023-11-19T08:46:50;94519.09;;;3.44;95.16
11329;BME280;5719;42.714;23.732;2023-11-19T08:49:17;94522.34;;;3.47;93.86
11329;BME280;5719;42.714;23.732;2023-11-19T08:51:44;94527.63;;;4.01;92.02
11329;BME280;5719;42.714;23.732;2023-11-19T08:54:11;94516.44;;;4.39;88.48
11329;BME280;5719;42.714;23.732;2023-11-19T08:56:39;94507.72;;;4.77;85.95
11329;BME280;5719;42.714;23.732;2023-11-19T08:59:06;94531.16;;;4.87;84.05
11329;BME280;5719;42.714;23.732;2023-11-19T09:01:34;94523.75;;;4.81;84.91
11329;BME280;5719;42.714;23.732;2023-11-19T09:04:03;94494.13;;;4.41;85.48
11329;BME280;5719;42.714;23.732;2023-11-19T09:06:31;94510.56;;;4.54;85.72
11329;BME280;5719;42.714;23.732;2023-11-19T09:08:58;94523.66;;;4.48;87.22
11329;BME280;5719;42.714;23.732;2023-11-19T09:11:28;94520.81;;;4.54;86.35
11329;BME280;5719;42.714;23.732;2023-11-19T09:20:40;94504.97;;;4.29;87.39
11329;BME280;5719;42.714;23.732;2023-11-19T09:23:07;94508.03;;;4.71;85.35
11329;BME280;5719;42.714;23.732;2023-11-19T09:25:34;94515.00;;;4.85;85.18
11329;BME280;5719;42.714;23.732;2023-11-19T09:28:01;94523.38;;;4.71;85.08
11329;BME280;5719;42.714;23.732;2023-11-19T09:30:28;94525.34;;;4.83;83.61
11329;BME280;5719;42.714;23.732;2023-11-19T09:36:28;94527.19;;;4.10;86.38
11329;BME280;5719;42.714;23.732;2023-11-19T09:38:54;94518.09;;;3.85;88.28
11329;BME280;5719;42.714;23.732;2023-11-19T09:41:21;94527.25;;;4.08;86.62
11329;BME280;5719;42.714;23.732;2023-11-19T09:43:49;94520.22;;;3.94;87.33
11329;BME280;5719;42.714;23.732;2023-11-19T09:46:16;94509.66;;;3.83;88.45
11329;BME280;5719;42.714;23.732;2023-11-19T09:48:44;94517.25;;;3.66;88.97
11329;BME280;5719;42.714;23.732;2023-11-19T09:51:13;94488.00;;;3.72;89.62
11329;BME280;5719;42.714;23.732;2023-11-19T09:53:42;94502.47;;;3.73;88.93
11329;BME280;5719;42.714;23.732;2023-11-19T09:56:08;94491.06;;;3.61;89.42
11329;BME280;5719;42.714;23.732;2023-11-19T09:58:37;94513.22;;;3.61;89.88
11329;BME280;5719;42.714;23.732;2023-11-19T10:01:04;94507.34;;;3.40;90.66
11329;BME280;5719;42.714;23.732;2023-11-19T10:03:33;94507.44;;;3.38;90.65
11329;BME280;5719;42.714;23.732;2023-11-19T10:09:57;94504.34;;;2.91;93.63
11329;BME280;5719;42.714;23.732;2023-11-19T10:12:23;94492.44;;;3.11;92.76
11329;BME280;5719;42.714;23.732;2023-11-19T10:14:50;94492.44;;;3.31;92.59
11329;BME280;5719;42.714;23.732;2023-11-19T10:17:19;94480.03;;;3.42;92.13
11329;BME280;5719;42.714;23.732;2023-11-19T10:19:46;94489.53;;;3.38;90.14
11329;BME280;5719;42.714;23.732;2023-11-19T10:22:14;94475.88;;;3.58;89.80
11329;BME280;5719;42.714;23.732;2023-11-19T10:24:42;94488.97;;;3.88;88.53
11329;BME280;5719;42.714;23.732;2023-11-19T10:27:10;94495.50;;;4.48;87.10
11329;BME280;5719;42.714;23.732;2023-11-19T10:29:38;94473.63;;;4.77;83.80
11329;BME280;5719;42.714;23.732;2023-11-19T11:11:02;94465.09;;;3.70;86.22
11329;BME280;5719;42.714;23.732;2023-11-19T11:13:31;94463.41;;;3.88;87.29
11329;BME280;5719;42.714;23.732;2023-11-19T11:15:58;94467.66;;;4.06;85.03
11329;BME280;5719;42.714;23.732;2023-11-19T11:18:26;94465.97;;;3.69;84.92
11329;BME280;5719;42.714;23.732;2023-11-19T11:20:55;94457.91;;;3.78;86.25
11329;BME280;5719;42.714;23.732;2023-11-19T11:23:37;94457.50;;;4.05;84.32
11329;BME280;5719;42.714;23.732;2023-11-19T11:26:46;94411.88;;;3.78;83.74
11329;BME280;5719;42.714;23.732;2023-11-19T11:29:24;94451.34;;;3.73;85.96
11329;BME280;5719;42.714;23.732;2023-11-19T11:32:00;94453.03;;;3.91;84.62
11329;BME280;5719;42.714;23.732;2023-11-19T11:34:48;94442.78;;;3.74;86.13
11329;BME280;5719;42.714;23.732;2023-11-19T11:37:20;94460.72;;;3.72;85.06
11329;BME280;5719;42.714;23.732;2023-11-19T11:39:50;94447.69;;;3.60;84.08
11329;BME280;5719;42.714;23.732;2023-11-19T11:48:57;94469.06;;;4.30;82.83
11329;BME280;5719;42.714;23.732;2023-11-19T11:54:26;94441.56;;;4.17;81.49
11329;BME280;5719;42.714;23.732;2023-11-19T11:57:01;94439.66;;;4.22;81.77
11329;BME280;5719;42.714;23.732;2023-11-19T11:59:36;94448.75;;;4.79;82.50
11329;BME280;5719;42.714;23.732;2023-11-19T12:02:03;94432.97;;;5.52;77.47
11329;BME280;5719;42.714;23.732;2023-11-19T12:04:32;94445.91;;;5.98;76.00
11329;BME280;5719;42.714;23.732;2023-11-19T12:07:04;94441.84;;;6.84;70.68
11329;BME280;5719;42.714;23.732;2023-11-19T12:09:31;94435.91;;;6.68;68.08
11329;BME280;5719;42.714;23.732;2023-11-19T12:12:17;94433.22;;;7.56;67.37
11329;BME280;5719;42.714;23.732;2023-11-19T12:15:04;94418.44;;;8.01;64.45
11329;BME280;5719;42.714;23.732;2023-11-19T12:17:42;94411.13;;;7.80;63.52
11329;BME280;5719;42.714;23.732;2023-11-19T12:20:27;94410.91;;;8.24;61.44
11329;BME280;5719;42.714;23.732;2023-11-19T12:22:56;94400.28;;;8.43;60.50
11329;BME280;5719;42.714;23.732;2023-11-19T12:25:24;94399.84;;;8.89;58.87
11329;BME280;5719;42.714;23.732;2023-11-19T12:27:51;94398.84;;;8.25;59.57
11329;BME280;5719;42.714;23.732;2023-11-19T12:30:21;94395.09;;;8.82;60.09
11329;BME280;5719;42.714;23.732;2023-11-19T12:32:48;94396.75;;;9.47;55.38
11329;BME280;5719;42.714;23.732;2023-11-19T12:35:15;94382.31;;;9.06;55.50
11329;BME280;5719;42.714;23.732;2023-11-19T12:37:45;94387.22;;;9.47;55.13
11329;BME280;5719;42.714;23.732;2023-11-19T12:40:16;94377.88;;;9.70;54.01
11329;BME280;5719;42.714;23.732;2023-11-19T12:42:44;94371.31;;;9.53;54.32
11329;BME280;5719;42.714;23.732;2023-11-19T12:45:11;94376.41;;;9.78;53.77
11329;BME280;5719;42.714;23.732;2023-11-19T12:47:39;94365.66;;;9.84;52.21
11329;BME280;5719;42.714;23.732;2023-11-19T12:50:07;94360.56;;;9.10;54.62
11329;BME280;5719;42.714;23.732;2023-11-19T12:52:35;94374.06;;;9.14;54.63
11329;BME280;5719;42.714;23.732;2023-11-19T12:55:03;94366.88;;;9.55;52.62
11329;BME280;5719;42.714;23.732;2023-11-19T12:57:38;94374.41;;;9.58;53.75
11329;BME280;5719;42.714;23.732;2023-11-19T13:00:07;94371.88;;;9.69;51.99
11329;BME280;5719;42.714;23.732;2023-11-19T13:02:47;94388.28;;;9.81;53.63
11329;BME280;5719;42.714;23.732;2023-11-19T13:08:37;94392.81;;;9.90;53.06
11329;BME280;5719;42.714;23.732;2023-11-19T13:11:06;94373.38;;;9.97;52.89
11329;BME280;5719;42.714;23.732;2023-11-19T13:13:55;94375.28;;;10.89;50.36
11329;BME280;5719;42.714;23.732;2023-11-19T13:16:24;94379.88;;;10.26;49.97
11329;BME280;5719;42.714;23.732;2023-11-19T13:18:51;94371.38;;;9.03;53.92
11329;BME280;5719;42.714;23.732;2023-11-19T13:21:18;94359.41;;;8.76;54.64
11329;BME280;5719;42.714;23.732;2023-11-19T13:23:45;94358.56;;;8.51;55.54
11329;BME280;5719;42.714;23.732;2023-11-19T13:26:13;94367.91;;;8.39;55.95
11329;BME280;5719;42.714;23.732;2023-11-19T13:28:40;94359.13;;;8.02;57.81
11329;BME280;5719;42.714;23.732;2023-11-19T13:31:07;94364.22;;;8.16;57.20
11329;BME280;5719;42.714;23.732;2023-11-19T13:33:34;94366.72;;;9.08;55.46
11329;BME280;5719;42.714;23.732;2023-11-19T13:36:01;94350.44;;;9.20;54.51
11329;BME280;5719;42.714;23.732;2023-11-19T13:38:31;94356.09;;;8.74;55.90
11329;BME280;5719;42.714;23.732;2023-11-19T13:40:58;94354.16;;;8.26;56.54
11329;BME280;5719;42.714;23.732;2023-11-19T13:43:27;94346.09;;;8.57;56.23
11329;BME280;5719;42.714;23.732;2023-11-19T13:45:54;94361.66;;;9.19;53.63
11329;BME280;5719;42.714;23.732;2023-11-19T13:48:21;94362.81;;;8.25;56.95
11329;BME280;5719;42.714;23.732;2023-11-19T13:50:48;94344.44;;;8.44;55.20
11329;BME280;5719;42.714;23.732;2023-11-19T13:53:15;94357.00;;;8.35;55.93
11329;BME280;5719;42.714;23.732;2023-11-19T13:55:42;94361.63;;;8.43;56.21
11329;BME280;5719;42.714;23.732;2023-11-19T13:58:09;94358.16;;;8.44;55.96
11329;BME280;5719;42.714;23.732;2023-11-19T14:00:37;94366.50;;;8.21;56.50
11329;BME280;5719;42.714;23.732;2023-11-19T14:03:07;94363.38;;;7.62;59.38
11329;BME280;5719;42.714;23.732;2023-11-19T14:05:34;94358.34;;;7.06;60.72
11329;BME280;5719;42.714;23.732;2023-11-19T14:08:01;94388.03;;;6.81;62.33
11329;BME280;5719;42.714;23.732;2023-11-19T14:10:29;94392.28;;;7.11;61.05
11329;BME280;5719;42.714;23.732;2023-11-19T14:12:55;94392.94;;;7.28;60.75
11329;BME280;5719;42.714;23.732;2023-11-19T14:15:23;94398.75;;;7.59;59.04
11329;BME280;5719;42.714;23.732;2023-11-19T14:17:52;94409.19;;;7.43;61.45
11329;BME280;5719;42.714;23.732;2023-11-19T14:20:19;94404.47;;;7.21;61.47
11329;BME280;5719;42.714;23.732;2023-11-19T14:22:46;94403.00;;;7.60;60.39
11329;BME280;5719;42.714;23.732;2023-11-19T14:25:14;94413.84;;;7.36;60.90
11329;BME280;5719;42.714;23.732;2023-11-19T14:27:42;94422.59;;;7.20;61.42
11329;BME280;5719;42.714;23.732;2023-11-19T14:30:11;94418.09;;;7.09;61.51
11329;BME280;5719;42.714;23.732;2023-11-19T14:32:39;94408.34;;;7.14;61.75
11329;BME280;5719;42.714;23.732;2023-11-19T14:35:09;94417.25;;;7.09;62.05
11329;BME280;5719;42.714;23.732;2023-11-19T14:37:36;94404.34;;;7.65;60.44
11329;BME280;5719;42.714;23.732;2023-11-19T14:40:03;94402.69;;;7.78;58.46
11329;BME280;5719;42.714;23.732;2023-11-19T14:42:31;94396.03;;;7.48;59.21
11329;BME280;5719;42.714;23.732;2023-11-19T14:44:58;94395.03;;;6.94;61.96
11329;BME280;5719;42.714;23.732;2023-11-19T14:47:25;94402.22;;;7.17;60.97
11329;BME280;5719;42.714;23.732;2023-11-19T14:49:52;94407.22;;;6.76;61.92
11329;BME280;5719;42.714;23.732;2023-11-19T14:52:20;94406.91;;;7.10;62.51
11329;BME280;5719;42.714;23.732;2023-11-19T14:54:47;94382.38;;;7.05;61.24
11329;BME280;5719;42.714;23.732;2023-11-19T14:57:14;94406.44;;;7.32;60.32
11329;BME280;5719;42.714;23.732;2023-11-19T14:59:41;94378.97;;;7.18;60.74
11329;BME280;5719;42.714;23.732;2023-11-19T15:02:07;94402.44;;;7.55;59.60
11329;BME280;5719;42.714;23.732;2023-11-19T15:04:34;94406.50;;;7.45;59.79
11329;BME280;5719;42.714;23.732;2023-11-19T15:07:01;94404.22;;;7.26;59.72
11329;BME280;5719;42.714;23.732;2023-11-19T15:09:31;94405.34;;;6.64;62.62
11329;BME280;5719;42.714;23.732;2023-11-19T15:11:58;94400.81;;;6.39;62.74